createdAt,value
2022-08-17T00:00:34.555Z,65.56
2022-08-17T00:03:13.677Z,65.33
2022-08-17T00:05:57.597Z,65.03
2022-08-17T00:08:32.170Z,64.64
2022-08-17T00:11:00.180Z,64.24
2022-08-17T00:13:41.936Z,63.91
2022-08-17T00:16:21.094Z,63.39
2022-08-17T00:19:11.481Z,64.51
2022-08-17T00:22:32.591Z,66.21
2022-08-17T00:24:31.887Z,65.88
2022-08-17T00:26:59.780Z,66.70
2022-08-17T00:29:27.622Z,67.55
2022-08-17T00:31:55.608Z,67.35
2022-08-17T00:34:25.323Z,66.15
2022-08-17T00:36:55.711Z,65.76
2022-08-17T00:39:23.666Z,65.46
2022-08-17T00:41:51.512Z,65.03
2022-08-17T00:44:19.631Z,64.42
2022-08-17T00:46:48.103Z,64.60
2022-08-17T00:49:19.194Z,64.96
2022-08-17T00:51:56.701Z,64.55
2022-08-17T00:54:28.887Z,64.67
2022-08-17T00:57:07.413Z,64.68
2022-08-17T00:59:39.458Z,64.25
2022-08-17T01:02:09.188Z,64.89
2022-08-17T01:04:37.023Z,64.28
2022-08-17T01:07:04.976Z,64.14
2022-08-17T01:09:32.880Z,63.96
2022-08-17T01:12:00.745Z,64.97
2022-08-17T01:14:28.608Z,65.19
2022-08-17T01:16:56.512Z,66.61
2022-08-17T01:19:31.175Z,66.51
2022-08-17T01:22:18.966Z,65.76
2022-08-17T01:24:52.042Z,65.87
2022-08-17T01:27:21.097Z,65.10
2022-08-17T01:29:52.235Z,64.79
2022-08-17T01:32:20.206Z,64.95
2022-08-17T01:34:50.616Z,65.19
2022-08-17T01:37:20.998Z,65.43
2022-08-17T01:39:53.135Z,65.80
2022-08-17T01:42:23.521Z,65.80
2022-08-17T01:44:56.812Z,66.11
2022-08-17T01:47:24.845Z,65.85
2022-08-17T01:49:52.913Z,65.24
2022-08-17T01:52:22.171Z,66.29
2022-08-17T01:54:49.982Z,66.05
2022-08-17T01:57:17.886Z,65.65
2022-08-17T01:59:45.695Z,64.71
2022-08-17T02:02:30.822Z,63.88
2022-08-17T02:04:59.859Z,63.75
2022-08-17T02:07:28.031Z,63.88
2022-08-17T02:09:56.688Z,63.88
2022-08-17T02:12:39.015Z,63.91
2022-08-17T02:15:08.898Z,63.98
2022-08-17T02:17:36.710Z,64.12
2022-08-17T02:20:05.729Z,64.38
2022-08-17T02:22:33.639Z,63.72
2022-08-17T02:25:02.315Z,63.64
2022-08-17T02:27:30.905Z,63.57
2022-08-17T02:29:58.777Z,63.61
2022-08-17T02:32:27.974Z,63.53
2022-08-17T02:34:58.216Z,63.35
2022-08-17T02:37:27.337Z,64.36
2022-08-17T02:39:57.309Z,64.61
2022-08-17T02:42:31.650Z,64.48
2022-08-17T02:45:01.141Z,64.29
2022-08-17T02:47:29.092Z,64.47
2022-08-17T02:49:57.297Z,64.72
2022-08-17T02:52:43.003Z,65.30
2022-08-17T02:55:18.277Z,65.55
2022-08-17T02:57:46.522Z,65.48
2022-08-17T03:00:21.404Z,65.50
2022-08-17T03:02:49.753Z,65.47
2022-08-17T03:05:20.740Z,65.53
2022-08-17T03:07:48.676Z,65.34
2022-08-17T03:10:17.317Z,65.58
2022-08-17T03:12:45.351Z,65.56
2022-08-17T03:15:26.135Z,65.44
2022-08-17T03:17:55.497Z,64.94
2022-08-17T03:20:24.929Z,64.71
2022-08-17T03:23:01.709Z,64.42
2022-08-17T03:25:34.660Z,64.61
2022-08-17T03:28:03.796Z,64.84
2022-08-17T03:30:31.967Z,64.85
2022-08-17T03:33:02.413Z,64.77
2022-08-17T03:35:32.426Z,64.46
2022-08-17T03:38:01.282Z,64.23
2022-08-17T03:40:55.435Z,64.46
2022-08-17T03:43:18.571Z,64.86
2022-08-17T03:46:04.735Z,64.86
2022-08-17T03:48:52.333Z,64.80
2022-08-17T03:51:40.971Z,64.96
2022-08-17T03:54:27.802Z,65.05
2022-08-17T03:57:10.098Z,65.29
2022-08-17T03:59:38.380Z,65.31
2022-08-17T04:02:19.743Z,65.89
2022-08-17T04:04:51.195Z,66.01
2022-08-17T04:07:24.726Z,65.70
2022-08-17T04:09:52.627Z,65.24
2022-08-17T04:12:22.112Z,65.45
2022-08-17T04:14:52.977Z,65.85
2022-08-17T04:17:27.948Z,65.98
2022-08-17T04:19:56.411Z,66.16
2022-08-17T04:22:32.024Z,66.20
2022-08-17T04:25:30.441Z,65.90
2022-08-17T04:27:58.738Z,66.57
2022-08-17T04:30:28.931Z,66.53
2022-08-17T04:33:10.800Z,66.59
2022-08-17T04:35:42.465Z,66.37
2022-08-17T04:38:15.112Z,66.43
2022-08-17T04:41:01.739Z,66.40
2022-08-17T04:43:31.105Z,66.51
2022-08-17T04:46:05.184Z,66.28
2022-08-17T04:48:42.750Z,66.45
2022-08-17T04:51:17.912Z,66.81
2022-08-17T04:53:54.719Z,66.75
2022-08-17T04:56:26.033Z,66.75
2022-08-17T04:59:00.881Z,66.48
2022-08-17T05:01:31.784Z,66.21
2022-08-17T05:04:32.125Z,66.76
2022-08-17T05:06:52.369Z,67.42
2022-08-17T05:09:20.429Z,67.65
2022-08-17T05:11:48.766Z,67.47
2022-08-17T05:14:16.733Z,67.35
2022-08-17T05:16:45.894Z,67.45
2022-08-17T05:19:13.769Z,67.72
2022-08-17T05:21:41.865Z,67.77
2022-08-17T05:24:38.599Z,67.79
2022-08-17T05:27:01.390Z,67.86
2022-08-17T05:29:35.340Z,67.73
2022-08-17T05:32:38.495Z,67.40
2022-08-17T05:35:00.876Z,66.98
2022-08-17T05:37:31.805Z,66.69
2022-08-17T05:39:59.885Z,66.54
2022-08-17T05:42:27.825Z,66.58
2022-08-17T05:44:57.942Z,66.55
2022-08-17T05:47:26.336Z,66.65
2022-08-17T05:49:54.336Z,66.36
2022-08-17T05:53:04.320Z,66.25
2022-08-17T05:56:04.030Z,66.13
2022-08-17T05:58:59.330Z,66.05
2022-08-17T06:01:35.410Z,66.03
2022-08-17T06:04:27.274Z,66.22
2022-08-17T06:07:12.773Z,66.74
2022-08-17T06:10:15.177Z,66.41
2022-08-17T06:13:10.686Z,66.56
2022-08-17T06:16:33.231Z,66.77
2022-08-17T06:19:25.201Z,67.14
2022-08-17T06:21:53.980Z,67.25
2022-08-17T06:24:47.784Z,67.40
2022-08-17T06:27:37.016Z,67.14
2022-08-17T06:30:13.062Z,66.69
2022-08-17T06:32:43.703Z,66.61
2022-08-17T06:35:28.840Z,66.30
2022-08-17T06:38:50.644Z,66.23
2022-08-17T06:41:40.678Z,65.84
2022-08-17T06:44:49.719Z,65.34
2022-08-17T06:47:36.763Z,64.98
2022-08-17T06:50:18.511Z,64.58
2022-08-17T06:53:14.234Z,64.05
2022-08-17T06:55:47.340Z,63.95
2022-08-17T06:58:15.813Z,63.95
2022-08-17T07:00:46.263Z,63.46
2022-08-17T07:03:49.937Z,62.97
2022-08-17T07:06:21.116Z,62.96
2022-08-17T07:08:59.294Z,61.72
2022-08-17T07:11:40.058Z,62.00
2022-08-17T07:14:38.602Z,61.29
2022-08-17T07:17:13.430Z,60.85
2022-08-17T07:19:45.675Z,59.94
2022-08-17T07:23:01.286Z,54.13
2022-08-17T07:25:30.706Z,51.86
2022-08-17T07:28:02.521Z,49.35
2022-08-17T07:30:46.930Z,47.66
2022-08-17T07:33:20.283Z,48.90
2022-08-17T07:35:50.222Z,46.34
2022-08-17T07:38:28.379Z,46.48
2022-08-17T07:41:05.606Z,46.76
2022-08-17T07:43:39.477Z,47.23
2022-08-17T07:46:46.314Z,49.88
2022-08-17T07:49:14.352Z,53.19
2022-08-17T07:51:48.062Z,53.82
2022-08-17T07:54:15.950Z,52.73
2022-08-17T07:57:29.893Z,52.97
2022-08-17T08:00:01.351Z,53.66
2022-08-17T08:02:38.306Z,51.45
2022-08-17T08:05:48.736Z,52.25
2022-08-17T08:08:43.141Z,53.96
2022-08-17T08:11:15.478Z,55.56
2022-08-17T08:13:45.673Z,56.93
2022-08-17T08:16:29.319Z,57.75
2022-08-17T08:19:00.931Z,58.53
2022-08-17T08:21:31.299Z,59.82
2022-08-17T08:24:34.970Z,60.24
2022-08-17T08:27:30.905Z,61.01
2022-08-17T08:30:19.378Z,61.63
2022-08-17T08:33:24.276Z,62.37
2022-08-17T08:37:12.748Z,61.54
2022-08-17T08:40:26.690Z,59.06
2022-08-17T08:43:28.979Z,59.39
2022-08-17T08:46:14.968Z,60.03
2022-08-17T08:49:14.992Z,59.76
2022-08-17T08:51:58.040Z,58.13
2022-08-17T08:54:54.917Z,57.24
2022-08-17T08:57:34.072Z,56.42
2022-08-17T09:00:19.288Z,56.94
2022-08-17T09:03:42.580Z,56.59
2022-08-17T09:06:58.585Z,55.04
2022-08-17T09:09:58.689Z,54.65
2022-08-17T09:13:12.139Z,56.20
2022-08-17T09:15:50.840Z,57.46
2022-08-17T09:19:01.292Z,58.37
2022-08-17T09:21:49.299Z,59.50
2022-08-17T09:24:37.437Z,60.03
2022-08-17T09:27:14.065Z,59.25
2022-08-17T09:30:04.158Z,60.08
2022-08-17T09:32:38.468Z,56.82
2022-08-17T09:35:36.944Z,55.94
2022-08-17T09:38:32.387Z,57.03
2022-08-17T09:41:17.137Z,58.14
2022-08-17T09:43:53.727Z,57.16
2022-08-17T09:46:29.842Z,56.87
2022-08-17T09:48:58.644Z,57.48
2022-08-17T09:51:35.388Z,57.50
2022-08-17T09:54:34.857Z,54.83
2022-08-17T09:57:30.788Z,56.00
2022-08-17T10:00:11.425Z,57.68
2022-08-17T10:03:09.931Z,58.03
2022-08-17T10:06:01.725Z,57.00
2022-08-17T10:08:52.655Z,56.55
2022-08-17T10:12:01.410Z,54.95
2022-08-17T10:14:43.779Z,55.32
2022-08-17T10:17:22.328Z,56.95
2022-08-17T10:20:12.835Z,57.01
2022-08-17T10:23:10.342Z,57.53
2022-08-17T10:26:04.524Z,58.44
2022-08-17T10:28:47.886Z,57.70
2022-08-17T10:31:42.954Z,56.76
2022-08-17T10:34:27.164Z,56.51
2022-08-17T10:37:15.037Z,56.99
2022-08-17T10:39:52.957Z,56.21
2022-08-17T10:42:52.308Z,58.27
2022-08-17T10:45:29.651Z,57.72
2022-08-17T10:48:07.399Z,56.59
2022-08-17T10:50:58.732Z,57.33
2022-08-17T10:53:33.709Z,58.27
2022-08-17T10:56:55.561Z,57.66
2022-08-17T10:59:48.756Z,55.40
2022-08-17T11:02:19.540Z,55.09
2022-08-17T11:05:00.249Z,55.49
2022-08-17T11:07:46.289Z,55.59
2022-08-17T11:10:20.349Z,55.54
2022-08-17T11:13:28.191Z,56.50
2022-08-17T11:16:32.819Z,57.42
2022-08-17T11:19:38.509Z,57.85
2022-08-17T11:22:09.041Z,58.29
2022-08-17T11:24:44.101Z,58.18
2022-08-17T11:27:33.806Z,56.54
2022-08-17T11:30:41.130Z,55.60
2022-08-17T11:33:45.028Z,54.92
2022-08-17T11:36:31.986Z,53.51
2022-08-17T11:39:24.201Z,50.37
2022-08-17T11:42:39.892Z,50.34
2022-08-17T11:45:33.264Z,52.42
2022-08-17T11:48:28.401Z,52.58
2022-08-17T11:51:46.999Z,54.28
2022-08-17T11:54:34.351Z,54.69
2022-08-17T11:57:25.732Z,54.72
2022-08-17T12:00:00.068Z,53.48
2022-08-17T12:02:32.517Z,53.17
2022-08-17T12:05:28.237Z,54.71
2022-08-17T12:08:06.385Z,53.67
2022-08-17T12:10:36.640Z,54.90
2022-08-17T12:13:13.315Z,56.41
2022-08-17T12:15:49.811Z,55.89
2022-08-17T12:18:22.933Z,54.47
2022-08-17T12:21:15.723Z,54.38
2022-08-17T12:24:19.488Z,53.39
2022-08-17T12:27:00.200Z,52.09
2022-08-17T12:29:35.555Z,51.58
2022-08-17T12:32:07.223Z,52.55
2022-08-17T12:34:39.938Z,54.37
2022-08-17T12:37:20.049Z,55.13
2022-08-17T12:39:56.394Z,53.90
2022-08-17T12:42:31.774Z,54.30
2022-08-17T12:44:59.621Z,55.35
2022-08-17T12:47:30.078Z,54.37
2022-08-17T12:50:08.463Z,53.00
2022-08-17T12:53:01.669Z,50.75
2022-08-17T12:55:32.634Z,50.67
2022-08-17T12:58:02.191Z,51.47
2022-08-17T13:00:41.083Z,52.44
2022-08-17T13:03:22.425Z,53.97
2022-08-17T13:06:00.757Z,55.38
2022-08-17T13:08:38.219Z,56.37
2022-08-17T13:11:18.433Z,57.36
2022-08-17T13:13:50.977Z,58.87
2022-08-17T13:16:27.633Z,59.13
2022-08-17T13:19:16.648Z,59.33
2022-08-17T13:21:52.567Z,58.20
2022-08-17T13:24:24.648Z,58.27
2022-08-17T13:26:59.257Z,58.43
2022-08-17T13:29:53.840Z,57.75
2022-08-17T13:32:44.137Z,56.54
2022-08-17T13:35:40.034Z,55.87
2022-08-17T13:38:16.194Z,56.76
2022-08-17T13:40:52.022Z,57.13
2022-08-17T13:43:45.796Z,57.36
2022-08-17T13:46:20.426Z,57.06
2022-08-17T13:49:04.020Z,56.96
2022-08-17T13:51:41.775Z,56.65
2022-08-17T13:54:26.327Z,55.72
2022-08-17T13:56:58.160Z,56.34
2022-08-17T13:59:54.616Z,56.44
2022-08-17T14:02:25.961Z,56.47
2022-08-17T14:04:56.584Z,56.35
2022-08-17T14:07:36.602Z,56.42
2022-08-17T14:10:14.387Z,56.85
2022-08-17T14:12:43.129Z,56.92
2022-08-17T14:15:13.719Z,56.29
2022-08-17T14:17:42.054Z,56.53
2022-08-17T14:20:12.317Z,57.30
2022-08-17T14:22:44.362Z,57.26
2022-08-17T14:25:14.348Z,57.85
2022-08-17T14:27:53.044Z,58.51
2022-08-17T14:30:24.690Z,59.09
2022-08-17T14:32:52.891Z,59.67
2022-08-17T14:35:22.944Z,60.42
2022-08-17T14:37:52.332Z,60.73
2022-08-17T14:40:21.028Z,60.50
2022-08-17T14:42:50.037Z,60.94
2022-08-17T14:45:32.892Z,60.95
2022-08-17T14:48:04.509Z,61.11
2022-08-17T14:50:35.391Z,61.30
2022-08-17T14:53:06.343Z,61.21
2022-08-17T14:55:34.831Z,60.79
2022-08-17T14:58:04.171Z,60.84
2022-08-17T15:00:32.921Z,60.36
2022-08-17T15:03:01.395Z,60.04
2022-08-17T15:05:33.671Z,59.22
2022-08-17T15:08:02.249Z,58.54
2022-08-17T15:10:30.825Z,58.00
2022-08-17T15:12:58.933Z,58.43
2022-08-17T15:15:27.041Z,59.13
2022-08-17T15:17:55.129Z,59.42
2022-08-17T15:20:29.959Z,59.50
2022-08-17T15:22:59.359Z,59.97
2022-08-17T15:25:29.700Z,60.21
2022-08-17T15:27:58.258Z,60.75
2022-08-17T15:30:26.763Z,61.23
2022-08-17T15:32:55.667Z,61.51
2022-08-17T15:35:28.077Z,61.85
2022-08-17T15:38:09.743Z,62.24
2022-08-17T15:40:46.212Z,62.38
2022-08-17T15:43:24.840Z,62.68
2022-08-17T15:46:14.708Z,57.98
2022-08-17T15:48:43.870Z,57.62
2022-08-17T15:51:24.891Z,58.03
2022-08-17T15:54:19.354Z,59.06
2022-08-17T15:56:50.929Z,58.49
2022-08-17T15:59:19.589Z,59.16
2022-08-17T16:03:13.819Z,59.50
2022-08-17T16:04:35.569Z,59.94
2022-08-17T16:07:07.079Z,60.07
2022-08-17T16:09:35.102Z,60.43
2022-08-17T16:12:11.467Z,60.47
2022-08-17T16:14:39.293Z,60.58
2022-08-17T16:17:15.587Z,60.81
2022-08-17T16:19:55.947Z,60.67
2022-08-17T16:22:41.974Z,60.68
2022-08-17T16:25:19.126Z,61.41
2022-08-17T16:27:49.288Z,61.98
2022-08-17T16:30:18.111Z,62.35
2022-08-17T16:32:47.981Z,61.80
2022-08-17T16:35:18.676Z,59.28
2022-08-17T16:37:46.988Z,58.71
2022-08-17T16:40:18.597Z,59.79
2022-08-17T16:42:48.530Z,60.99
2022-08-17T16:45:25.407Z,61.92
2022-08-17T16:47:58.096Z,63.08
2022-08-17T16:50:26.116Z,61.83
2022-08-17T16:53:06.808Z,59.69
2022-08-17T16:55:37.388Z,59.28
2022-08-17T16:58:06.129Z,59.96
2022-08-17T17:00:34.193Z,60.58
2022-08-17T17:03:19.215Z,61.25
2022-08-17T17:06:45.570Z,61.48
2022-08-17T17:09:28.222Z,66.44
2022-08-17T17:11:59.455Z,65.05
2022-08-17T17:14:46.794Z,63.10
2022-08-17T17:17:33.986Z,61.69
2022-08-17T17:20:15.353Z,60.76
2022-08-17T17:22:52.158Z,58.99
2022-08-17T17:25:51.313Z,58.84
2022-08-17T17:28:48.827Z,59.71
2022-08-17T17:31:23.883Z,60.87
2022-08-17T17:34:00.613Z,63.56
2022-08-17T17:36:40.909Z,64.08
2022-08-17T17:39:26.527Z,63.00
2022-08-17T17:41:57.623Z,61.75
2022-08-17T17:44:29.052Z,61.10
2022-08-17T17:46:59.596Z,59.67
2022-08-17T17:49:33.348Z,59.71
2022-08-17T17:52:24.027Z,61.05
2022-08-17T17:55:19.647Z,64.25
2022-08-17T17:58:02.803Z,64.78
2022-08-17T18:00:53.428Z,63.41
2022-08-17T18:04:08.321Z,62.57
2022-08-17T18:06:50.849Z,61.73
2022-08-17T18:09:43.600Z,61.23
2022-08-17T18:12:44.344Z,60.77
2022-08-17T18:15:51.516Z,60.00
2022-08-17T18:18:39.922Z,58.64
2022-08-17T18:21:16.746Z,59.79
2022-08-17T18:24:03.003Z,60.93
2022-08-17T18:26:42.044Z,64.57
2022-08-17T18:29:22.151Z,63.10
2022-08-17T18:32:14.491Z,63.63
2022-08-17T18:34:47.707Z,63.98
2022-08-17T18:37:45.188Z,63.48
2022-08-17T18:40:19.639Z,63.37
2022-08-17T18:43:04.451Z,62.74
2022-08-17T18:45:42.733Z,62.68
2022-08-17T18:48:59.053Z,62.29
2022-08-17T18:51:43.437Z,62.23
2022-08-17T18:54:22.519Z,62.20
2022-08-17T18:57:00.164Z,62.17
2022-08-17T18:59:57.701Z,62.41
2022-08-17T19:02:41.812Z,62.78
2022-08-17T19:05:41.881Z,62.17
2022-08-17T19:08:32.750Z,61.78
2022-08-17T19:11:32.180Z,61.56
2022-08-17T19:14:12.947Z,61.80
2022-08-17T19:16:49.405Z,61.45
2022-08-17T19:19:49.508Z,61.11
2022-08-17T19:22:30.932Z,61.47
2022-08-17T19:25:11.111Z,60.57
2022-08-17T19:27:57.189Z,60.56
2022-08-17T19:30:26.462Z,61.01
2022-08-17T19:32:56.002Z,61.04
2022-08-17T19:35:30.206Z,60.83
2022-08-17T19:38:53.147Z,60.62
2022-08-17T19:41:26.924Z,60.80
2022-08-17T19:44:23.653Z,60.66
2022-08-17T19:47:06.733Z,61.72
2022-08-17T19:50:09.516Z,62.35
2022-08-17T19:52:59.080Z,61.32
2022-08-17T19:55:56.119Z,61.10
2022-08-17T19:59:10.806Z,61.44
2022-08-17T20:02:03.176Z,61.40
2022-08-17T20:04:32.301Z,60.87
2022-08-17T20:07:06.272Z,60.75
2022-08-17T20:09:34.397Z,60.78
2022-08-17T20:12:18.756Z,60.68
2022-08-17T20:14:55.541Z,60.68
2022-08-17T20:17:40.850Z,60.40
2022-08-17T20:20:50.761Z,60.56
2022-08-17T20:23:46.169Z,60.49
2022-08-17T20:26:40.242Z,59.99
2022-08-17T20:29:17.015Z,59.87
2022-08-17T20:31:54.100Z,59.87
2022-08-17T20:34:36.682Z,59.85
2022-08-17T20:37:29.561Z,59.79
2022-08-17T20:39:57.495Z,59.85
2022-08-17T20:42:26.406Z,60.14
2022-08-17T20:45:05.864Z,59.99
2022-08-17T20:48:00.908Z,58.66
2022-08-17T20:50:53.013Z,58.90
2022-08-17T20:54:01.239Z,60.22
2022-08-17T20:56:44.090Z,63.82
2022-08-17T20:59:20.748Z,64.89
2022-08-17T21:02:17.742Z,64.14
2022-08-17T21:04:49.860Z,63.75
2022-08-17T21:07:42.609Z,63.19
2022-08-17T21:10:21.499Z,62.93
2022-08-17T21:12:59.654Z,62.72
2022-08-17T21:15:48.658Z,62.10
2022-08-17T21:18:35.380Z,61.80
2022-08-17T21:21:17.963Z,61.29
2022-08-17T21:24:14.640Z,61.50
2022-08-17T21:27:22.753Z,61.89
2022-08-17T21:30:06.657Z,61.70
2022-08-17T21:32:40.414Z,61.42
2022-08-17T21:35:28.382Z,60.97
2022-08-17T21:38:03.629Z,61.00
2022-08-17T21:40:32.975Z,60.97
2022-08-17T21:43:15.874Z,60.90
2022-08-17T21:45:44.250Z,60.81
2022-08-17T21:48:19.946Z,61.16
2022-08-17T21:51:00.906Z,60.94
2022-08-17T21:53:36.810Z,60.66
2022-08-17T21:56:06.534Z,60.53
2022-08-17T21:58:40.085Z,60.61
2022-08-17T22:01:24.464Z,60.58
2022-08-17T22:04:18.249Z,60.53
2022-08-17T22:06:56.649Z,60.45
2022-08-17T22:09:42.190Z,59.79
2022-08-17T22:12:17.817Z,59.92
2022-08-17T22:15:00.678Z,60.27
2022-08-17T22:17:29.415Z,60.94
2022-08-17T22:20:27.976Z,60.90
2022-08-17T22:23:17.757Z,60.83
2022-08-17T22:26:04.745Z,60.95
2022-08-17T22:28:49.489Z,60.71
2022-08-17T22:31:23.571Z,60.68
2022-08-17T22:34:01.949Z,60.55
2022-08-17T22:36:34.567Z,60.44
2022-08-17T22:39:26.608Z,60.34
2022-08-17T22:41:57.283Z,60.89
2022-08-17T22:44:37.906Z,60.28
2022-08-17T22:47:15.150Z,59.95
2022-08-17T22:49:57.941Z,60.12
2022-08-17T22:52:57.143Z,60.51
2022-08-17T22:55:43.914Z,60.65
2022-08-17T22:58:32.523Z,60.82
2022-08-17T23:01:33.387Z,60.80
2022-08-17T23:04:13.900Z,60.49
2022-08-17T23:06:44.602Z,60.04
2022-08-17T23:09:12.524Z,59.65
2022-08-17T23:11:49.255Z,59.74
2022-08-17T23:14:20.244Z,59.56
2022-08-17T23:16:50.510Z,58.48
2022-08-17T23:19:20.663Z,59.39
2022-08-17T23:21:49.364Z,61.25
2022-08-17T23:24:22.131Z,65.23
2022-08-17T23:26:50.419Z,65.58
2022-08-17T23:29:20.743Z,64.15
2022-08-17T23:31:51.209Z,63.33
2022-08-17T23:34:19.095Z,63.01
2022-08-17T23:36:52.362Z,62.81
2022-08-17T23:39:24.641Z,62.55
2022-08-17T23:41:59.683Z,61.90
2022-08-17T23:44:29.032Z,61.02
2022-08-17T23:46:57.337Z,60.68
2022-08-17T23:49:25.658Z,60.43
2022-08-17T23:51:54.897Z,60.76
2022-08-17T23:54:34.832Z,60.39
2022-08-17T23:57:04.440Z,60.54
2022-08-17T23:59:34.043Z,60.28
